Terminal Aerodrome Forecast
Issued by NWS Binghamton, NY

Current Version | Previous Version | Text Only | Print | Product List | Glossary On
Versions: 1 2 3 4 5 6 7 8 9 10 11 12 13 14 15 16 17 18 19 20 21
000
FTUS41 KBGM 211730
TAFBGM
TAF
KBGM 211730Z 2118/2218 23008KT P6SM SCT045 SCT100
      TEMPO 2118/2121 BKN045 BKN100
     FM220000 21005KT P6SM SCT250
      TEMPO 2209/2212 5SM BR
     FM221500 20012KT P6SM BKN080=

USA.gov is the U.S. government's official web portal to all federal, state and local government web resources and services.